Time;durP1;ratioP1;P1;durP2;ratioP2;P2;SDS_P1;SDS_P2;PMS_P1;PMS_P2;Temp;Humidity;BMP_temperature;BMP_pressure;BME280_temperature;BME280_humidity;BME280_pressure;Samples;Min_cycle;Max_cycle;Signal;HPM_P1;HPM_P2
2022/06/10 00:00:51;;;;;;;11.20;2.53;;;17.10;99.90;;;;;;5114496;28;20425;-71
2022/06/10 00:03:19;;;;;;;12.38;2.60;;;17.20;99.90;;;;;;5111076;28;20112;-68
2022/06/10 00:05:48;;;;;;;15.98;2.72;;;17.30;99.90;;;;;;5114544;28;20024;-72
2022/06/10 00:08:18;;;;;;;9.10;2.33;;;17.10;99.90;;;;;;5114067;28;20071;-70
2022/06/10 00:10:45;;;;;;;11.45;2.20;;;17.00;99.90;;;;;;5085761;28;20027;-69
2022/06/10 00:13:13;;;;;;;11.80;2.38;;;17.00;99.90;;;;;;5114447;28;20080;-68
2022/06/10 00:15:39;;;;;;;12.07;2.38;;;17.00;99.90;;;;;;5114093;28;20015;-68
2022/06/10 00:18:05;;;;;;;20.67;3.53;;;16.90;99.90;;;;;;5114068;28;20028;-68
2022/06/10 00:20:32;;;;;;;14.93;2.78;;;17.00;99.90;;;;;;5112664;28;20028;-69
2022/06/10 00:22:59;;;;;;;17.75;3.40;;;17.00;99.90;;;;;;5108247;28;20028;-68
2022/06/10 00:25:26;;;;;;;20.20;2.78;;;17.00;99.90;;;;;;5113771;28;20496;-70
2022/06/10 00:27:52;;;;;;;18.60;3.20;;;17.00;99.90;;;;;;5114232;28;20445;-70
2022/06/10 00:30:21;;;;;;;14.52;2.42;;;17.00;99.90;;;;;;5113958;28;20053;-69
2022/06/10 00:32:47;;;;;;;20.48;2.60;;;17.10;99.90;;;;;;5113788;28;20023;-68
2022/06/10 00:35:13;;;;;;;14.05;2.35;;;17.10;99.90;;;;;;5114131;28;20024;-68
2022/06/10 00:37:39;;;;;;;12.77;2.58;;;17.10;99.90;;;;;;5113590;28;20027;-68
2022/06/10 00:40:08;;;;;;;14.43;2.58;;;17.10;99.90;;;;;;5113916;28;20536;-69
2022/06/10 00:42:37;;;;;;;12.95;2.50;;;17.10;99.90;;;;;;5113579;28;20027;-70
2022/06/10 00:45:04;;;;;;;16.10;2.70;;;17.10;99.90;;;;;;5113514;28;20012;-70
2022/06/10 00:47:37;;;;;;;9.80;2.40;;;17.00;99.90;;;;;;5099661;28;20026;-70
2022/06/10 00:50:30;;;;;;;20.98;2.30;;;16.90;99.90;;;;;;5109876;28;20477;-68
2022/06/10 00:53:05;;;;;;;15.98;2.00;;;16.90;99.90;;;;;;5107087;28;20035;-69
2022/06/10 00:55:32;;;;;;;11.23;2.15;;;16.90;99.90;;;;;;5085964;28;20152;-70
2022/06/10 00:58:31;;;;;;;9.00;2.25;;;16.80;99.90;;;;;;5113573;28;20111;-68
2022/06/10 01:00:57;;;;;;;12.27;2.13;;;16.80;99.90;;;;;;5113110;28;20035;-69
2022/06/10 01:03:23;;;;;;;17.80;3.10;;;16.80;99.90;;;;;;5110473;28;20024;-70
2022/06/10 01:05:50;;;;;;;10.50;2.22;;;16.70;99.90;;;;;;5113299;28;20015;-68
2022/06/10 01:08:19;;;;;;;16.95;2.28;;;16.80;99.90;;;;;;5113354;28;20388;-68
2022/06/10 01:10:45;;;;;;;13.40;2.70;;;16.70;99.90;;;;;;5113428;28;20027;-68
2022/06/10 01:13:37;;;;;;;16.40;2.60;;;16.60;99.90;;;;;;5096768;22;20048;-71
2022/06/10 01:16:35;;;;;;;11.23;2.03;;;16.70;99.90;;;;;;5047986;28;20024;-70
2022/06/10 01:19:18;;;;;;;18.45;2.42;;;16.70;99.90;;;;;;5054408;28;20103;-69
2022/06/10 01:21:44;;;;;;;15.40;2.75;;;16.70;99.90;;;;;;5072709;28;20016;-71
2022/06/10 01:24:21;;;;;;;12.63;2.50;;;16.80;99.90;;;;;;5054895;28;20040;-70
2022/06/10 01:30:00;;;;;;;18.75;3.10;;;16.70;99.90;;;;;;5046486;28;20091;-71
2022/06/10 01:32:55;;;;;;;22.27;2.40;;;16.60;99.90;;;;;;5072497;28;20028;-71
2022/06/10 01:35:50;;;;;;;9.00;2.50;;;16.40;99.90;;;;;;5028233;28;20048;-71
2022/06/10 01:38:24;;;;;;;14.23;2.85;;;16.50;99.90;;;;;;5069988;28;20032;-70
2022/06/10 01:41:01;;;;;;;15.73;2.47;;;16.50;99.90;;;;;;5072065;28;20461;-69
2022/06/10 01:43:43;;;;;;;18.65;3.15;;;16.60;99.90;;;;;;5072386;28;20036;-68
2022/06/10 01:46:16;;;;;;;24.35;2.65;;;16.70;99.90;;;;;;5069133;28;20076;-68
2022/06/10 01:49:06;;;;;;;20.17;2.75;;;16.70;99.90;;;;;;5062821;28;20102;-70
2022/06/10 01:51:56;;;;;;;9.55;2.20;;;16.60;99.90;;;;;;5058056;28;20146;-70
2022/06/10 01:54:44;;;;;;;12.77;2.40;;;16.70;99.90;;;;;;5060870;28;20127;-70
2022/06/10 01:57:19;;;;;;;10.88;2.70;;;16.60;99.90;;;;;;5072316;28;20170;-70
2022/06/10 01:59:52;;;;;;;11.30;2.08;;;16.60;99.90;;;;;;5071930;28;20036;-68
2022/06/10 02:02:26;;;;;;;15.02;3.20;;;16.70;99.90;;;;;;5072317;28;20035;-71
2022/06/10 02:05:10;;;;;;;17.70;2.55;;;16.70;99.90;;;;;;5069470;28;20028;-71
2022/06/10 02:07:45;;;;;;;11.65;2.50;;;16.70;99.90;;;;;;5051154;28;20028;-70
2022/06/10 02:10:33;;;;;;;19.33;3.30;;;16.60;99.90;;;;;;5075917;28;20131;-71
2022/06/10 02:13:06;;;;;;;12.65;2.55;;;16.60;99.90;;;;;;5075419;28;20036;-70
2022/06/10 02:15:40;;;;;;;19.98;2.90;;;16.60;99.90;;;;;;5075871;28;20082;-70
2022/06/10 02:18:13;;;;;;;18.40;3.50;;;16.50;99.90;;;;;;5075733;28;20113;-70
2022/06/10 02:20:45;;;;;;;13.13;3.58;;;16.40;99.90;;;;;;5057780;28;20435;-69
2022/06/10 02:23:14;;;;;;;17.75;3.58;;;16.30;99.90;;;;;;5075677;28;20035;-70
2022/06/10 02:25:48;;;;;;;16.58;2.80;;;16.40;99.90;;;;;;5075645;28;20047;-70
2022/06/10 02:28:20;;;;;;;14.98;2.83;;;16.50;99.90;;;;;;5057229;28;20033;-69
2022/06/10 02:30:54;;;;;;;13.88;2.17;;;16.40;99.90;;;;;;5073129;28;20140;-70
2022/06/10 02:33:20;;;;;;;11.07;2.75;;;16.40;99.90;;;;;;5053973;28;20025;-70
2022/06/10 02:35:54;;;;;;;18.90;3.10;;;16.40;99.90;;;;;;5055583;28;20071;-69
2022/06/10 02:38:47;;;;;;;13.35;2.72;;;16.50;99.90;;;;;;5055278;28;20068;-70
2022/06/10 02:41:43;;;;;;;16.70;2.53;;;16.50;99.90;;;;;;5055138;28;20025;-70
2022/06/10 02:44:50;;;;;;;21.55;3.25;;;16.40;99.90;;;;;;5035556;28;20457;-69
2022/06/10 02:47:31;;;;;;;11.82;2.40;;;16.40;99.90;;;;;;5021263;28;20416;-70
2022/06/10 02:49:57;;;;;;;15.52;2.40;;;16.40;99.90;;;;;;5055050;28;20044;-71
2022/06/10 02:52:27;;;;;;;19.67;3.03;;;16.40;99.90;;;;;;5055210;28;20386;-69
2022/06/10 02:54:53;;;;;;;13.73;2.88;;;16.40;99.90;;;;;;5055301;28;20029;-69
2022/06/10 02:57:27;;;;;;;12.23;2.17;;;16.40;99.90;;;;;;5054517;28;20354;-69
2022/06/10 03:03:09;;;;;;;14.48;2.67;;;16.50;99.90;;;;;;5055569;28;20033;-69
2022/06/10 03:05:40;;;;;;;15.68;2.47;;;16.50;99.90;;;;;;5054854;28;20544;-69
2022/06/10 03:08:12;;;;;;;12.88;2.42;;;16.50;99.90;;;;;;5036611;28;20045;-69
2022/06/10 03:10:43;;;;;;;15.00;3.00;;;16.30;99.90;;;;;;5054320;28;20036;-69
2022/06/10 03:13:30;;;;;;;13.13;2.53;;;16.20;99.90;;;;;;5054499;28;20036;-69
2022/06/10 03:16:19;;;;;;;17.13;2.45;;;16.20;99.90;;;;;;5054742;28;20111;-69
2022/06/10 03:19:35;;;;;;;13.48;2.45;;;16.30;99.90;;;;;;5054216;28;20036;-70
2022/06/10 03:22:19;;;;;;;16.58;2.88;;;16.30;99.90;;;;;;5033028;28;20099;-70
2022/06/10 03:25:19;;;;;;;13.77;3.28;;;16.30;99.90;;;;;;5040448;28;20056;-69
2022/06/10 03:27:58;;;;;;;12.18;2.75;;;16.30;99.90;;;;;;5054212;28;20029;-69
2022/06/10 03:30:31;;;;;;;16.45;3.65;;;16.30;99.90;;;;;;5054675;28;20025;-70
2022/06/10 03:33:08;;;;;;;;;;;16.40;99.90;;;;;;5054619;28;20025;-69
2022/06/10 03:35:37;;;;;;;16.65;2.83;;;16.40;99.90;;;;;;5054479;28;19931;-70
2022/06/10 03:38:05;;;;;;;18.60;3.22;;;16.40;99.90;;;;;;5053934;28;20040;-69
2022/06/10 03:40:32;;;;;;;13.40;3.17;;;16.40;99.90;;;;;;5054105;28;20121;-69
2022/06/10 03:42:59;;;;;;;12.80;2.58;;;16.50;99.90;;;;;;5054062;28;20485;-69
2022/06/10 03:45:29;;;;;;;24.48;4.07;;;16.40;99.90;;;;;;5054400;28;20040;-69
2022/06/10 03:47:56;;;;;;;15.82;2.92;;;16.40;99.90;;;;;;5049891;28;20087;-68
2022/06/10 03:50:26;;;;;;;16.60;3.03;;;16.50;99.90;;;;;;5036462;28;20409;-70
2022/06/10 03:52:52;;;;;;;12.32;2.50;;;16.50;99.90;;;;;;5054002;28;20075;-69
2022/06/10 03:55:19;;;;;;;16.83;2.40;;;16.50;99.90;;;;;;5053485;28;20162;-69
2022/06/10 03:57:46;;;;;;;14.85;3.00;;;16.60;99.90;;;;;;5054112;28;20037;-69
2022/06/10 04:00:23;;;;;;;14.18;2.75;;;16.50;99.90;;;;;;5053767;28;20021;-70
2022/06/10 04:02:50;;;;;;;9.98;2.28;;;16.60;99.90;;;;;;5054007;28;20028;-70
2022/06/10 04:05:16;;;;;;;22.73;3.28;;;16.70;99.90;;;;;;5053459;28;20021;-69
2022/06/10 04:07:42;;;;;;;17.27;2.90;;;16.70;99.90;;;;;;5053860;28;20446;-69
2022/06/10 04:10:12;;;;;;;10.82;2.45;;;16.60;99.90;;;;;;5053096;28;20077;-69
2022/06/10 04:12:38;;;;;;;15.48;2.38;;;16.50;99.90;;;;;;5036164;28;20478;-69
2022/06/10 04:15:05;;;;;;;12.93;2.63;;;16.50;99.90;;;;;;5053530;28;20043;-68
2022/06/10 04:17:32;;;;;;;15.80;3.80;;;16.60;99.90;;;;;;5053618;28;20020;-69
2022/06/10 04:19:59;;;;;;;11.48;2.55;;;16.50;99.90;;;;;;5053680;28;20477;-70
2022/06/10 04:22:26;;;;;;;17.10;2.85;;;16.60;99.90;;;;;;5035630;28;20029;-69
2022/06/10 04:24:53;;;;;;;13.65;2.30;;;16.60;99.90;;;;;;5053494;28;20444;-69
2022/06/10 04:27:19;;;;;;;11.13;2.17;;;16.70;99.90;;;;;;5053262;28;20473;-70
2022/06/10 04:29:45;;;;;;;14.40;2.60;;;16.60;99.90;;;;;;5052330;28;20036;-69
2022/06/10 04:32:12;;;;;;;11.00;2.47;;;16.60;99.90;;;;;;5053389;28;20021;-70
2022/06/10 04:34:37;;;;;;;11.80;3.45;;;16.70;99.90;;;;;;5039506;28;20048;-69
2022/06/10 04:37:04;;;;;;;16.88;3.92;;;16.70;99.90;;;;;;5053079;28;20465;-70
2022/06/10 04:39:30;;;;;;;15.82;4.40;;;16.70;99.90;;;;;;5052715;28;20017;-70
2022/06/10 04:41:56;;;;;;;16.98;4.35;;;16.80;99.90;;;;;;5053122;28;20607;-69
2022/06/10 04:44:22;;;;;;;21.90;4.93;;;16.70;99.90;;;;;;5053033;28;20033;-70
2022/06/10 04:46:48;;;;;;;19.73;4.93;;;16.80;99.90;;;;;;5030969;28;20025;-69
2022/06/10 04:49:14;;;;;;;13.75;4.72;;;16.80;99.90;;;;;;5052911;28;20059;-70
2022/06/10 04:51:40;;;;;;;26.48;5.70;;;17.00;99.90;;;;;;5052679;28;20021;-70
2022/06/10 04:54:07;;;;;;;20.40;6.70;;;17.00;99.90;;;;;;5052841;28;20025;-69
2022/06/10 04:56:34;;;;;;;23.92;6.72;;;16.90;99.90;;;;;;5052747;28;20067;-69
2022/06/10 04:59:00;;;;;;;18.50;6.40;;;16.90;99.90;;;;;;5052994;28;20105;-69
2022/06/10 05:01:26;;;;;;;18.77;6.05;;;16.80;99.90;;;;;;5035109;28;20029;-69
2022/06/10 05:03:52;;;;;;;15.48;6.32;;;16.80;99.90;;;;;;5052731;28;20079;-69
2022/06/10 05:06:18;;;;;;;20.63;8.23;;;16.90;99.90;;;;;;5052423;28;20024;-69
2022/06/10 05:08:44;;;;;;;22.05;8.90;;;16.90;99.90;;;;;;5052428;28;20029;-69
2022/06/10 05:11:09;;;;;;;23.17;7.95;;;16.90;99.90;;;;;;5052698;28;20060;-69
2022/06/10 05:13:36;;;;;;;26.80;8.60;;;16.80;99.90;;;;;;5052545;28;20044;-69
2022/06/10 05:16:04;;;;;;;25.63;8.48;;;16.90;99.90;;;;;;5052534;28;20021;-70
2022/06/10 05:18:30;;;;;;;20.20;8.43;;;17.00;99.90;;;;;;5052786;28;20049;-68
2022/06/10 05:20:56;;;;;;;19.60;8.38;;;17.00;99.90;;;;;;5052156;28;20100;-69
2022/06/10 05:23:24;;;;;;;23.50;8.93;;;17.00;99.90;;;;;;5052507;28;20024;-69
2022/06/10 05:25:50;;;;;;;26.58;8.02;;;17.10;99.90;;;;;;5052386;28;20029;-70
2022/06/10 05:28:17;;;;;;;19.90;8.57;;;17.00;99.90;;;;;;5052457;28;20113;-69
2022/06/10 05:30:43;;;;;;;25.08;9.50;;;17.00;99.90;;;;;;5052272;28;20033;-69
2022/06/10 05:33:10;;;;;;;23.60;9.13;;;17.10;99.90;;;;;;5052635;28;20032;-69
2022/06/10 05:35:37;;;;;;;16.33;7.90;;;17.10;99.90;;;;;;5052141;28;20021;-68
2022/06/10 05:38:04;;;;;;;21.13;8.23;;;17.10;99.90;;;;;;5052470;28;20044;-70
2022/06/10 05:40:31;;;;;;;18.42;7.30;;;17.30;99.90;;;;;;5053235;28;20028;-68
2022/06/10 05:42:58;;;;;;;23.33;9.02;;;17.30;99.90;;;;;;5056384;28;20453;-68
2022/06/10 05:45:24;;;;;;;21.85;6.90;;;17.30;99.90;;;;;;5056204;28;20416;-70
2022/06/10 05:47:53;;;;;;;14.27;6.20;;;17.30;99.90;;;;;;5052178;28;20493;-69
2022/06/10 05:50:25;;;;;;;20.15;6.22;;;17.30;99.90;;;;;;5055944;28;20076;-69
2022/06/10 05:52:51;;;;;;;17.67;6.35;;;17.40;99.90;;;;;;5056368;28;20079;-69
2022/06/10 05:55:18;;;;;;;17.63;5.00;;;17.40;99.90;;;;;;5056067;28;20792;-70
2022/06/10 05:57:45;;;;;;;13.65;4.60;;;17.40;99.90;;;;;;5055933;28;20021;-69
2022/06/10 06:00:21;;;;;;;13.93;5.38;;;17.40;99.90;;;;;;5056067;28;20068;-69
2022/06/10 06:02:47;;;;;;;14.25;5.70;;;17.40;99.90;;;;;;5056205;28;20116;-69
2022/06/10 06:05:13;;;;;;;17.13;4.18;;;17.40;99.90;;;;;;5055336;28;20040;-70
2022/06/10 06:07:40;;;;;;;16.77;4.82;;;17.40;99.90;;;;;;5050760;28;20017;-70
2022/06/10 06:10:07;;;;;;;12.90;3.72;;;17.40;99.90;;;;;;5048753;28;20033;-69
2022/06/10 06:12:34;;;;;;;13.98;4.03;;;17.40;99.90;;;;;;5054100;28;20449;-70
2022/06/10 06:15:00;;;;;;;14.60;3.83;;;17.30;99.90;;;;;;5052605;28;20104;-70
2022/06/10 06:17:26;;;;;;;18.52;4.57;;;17.40;99.90;;;;;;5051769;28;20377;-69
2022/06/10 06:19:51;;;;;;;11.25;3.55;;;17.50;99.90;;;;;;5054416;28;20029;-70
2022/06/10 06:22:18;;;;;;;12.80;4.18;;;17.60;99.90;;;;;;5054889;28;20037;-69
2022/06/10 06:24:44;;;;;;;15.65;3.08;;;17.60;99.90;;;;;;5054680;28;20108;-71
2022/06/10 06:27:16;;;;;;;14.80;3.65;;;17.50;99.90;;;;;;5050914;28;20028;-71
2022/06/10 06:29:43;;;;;;;12.38;3.28;;;17.60;99.90;;;;;;5053949;28;20473;-69
2022/06/10 06:32:09;;;;;;;12.90;3.67;;;17.40;99.90;;;;;;5054703;28;20017;-70
2022/06/10 06:34:37;;;;;;;12.07;3.50;;;17.40;99.90;;;;;;5054459;28;20029;-69
2022/06/10 06:37:04;;;;;;;13.35;3.17;;;17.50;99.90;;;;;;5052017;28;20031;-70
2022/06/10 06:39:30;;;;;;;12.02;3.15;;;17.50;99.90;;;;;;5053005;28;20052;-70
2022/06/10 06:41:56;;;;;;;11.82;3.38;;;17.40;99.90;;;;;;5050604;28;20102;-70
2022/06/10 06:44:32;;;;;;;14.07;3.33;;;17.50;99.90;;;;;;5036917;28;20033;-70
2022/06/10 06:46:58;;;;;;;22.35;4.70;;;17.60;99.90;;;;;;5045048;28;20017;-70
2022/06/10 06:49:26;;;;;;;14.27;3.67;;;17.50;99.90;;;;;;5040468;28;20500;-71
2022/06/10 06:51:54;;;;;;;16.98;4.10;;;17.60;99.90;;;;;;5046218;28;20051;-68
2022/06/10 06:54:20;;;;;;;15.85;3.47;;;17.70;99.90;;;;;;5049202;28;20037;-69
2022/06/10 06:56:47;;;;;;;14.75;3.88;;;17.70;99.90;;;;;;5052682;28;20036;-70
2022/06/10 06:59:14;;;;;;;13.52;4.13;;;17.80;99.90;;;;;;5039083;28;20072;-70
2022/06/10 07:01:40;;;;;;;14.80;3.72;;;17.80;99.90;;;;;;5053852;28;20435;-70
2022/06/10 07:04:07;;;;;;;12.82;4.05;;;17.60;99.90;;;;;;5034175;28;20029;-71
2022/06/10 07:06:35;;;;;;;13.02;3.97;;;17.80;99.90;;;;;;5025209;28;20078;-70
2022/06/10 07:09:02;;;;;;;18.35;3.97;;;17.80;99.90;;;;;;5053747;28;20037;-71
2022/06/10 07:11:28;;;;;;;14.32;4.05;;;17.90;99.90;;;;;;5046556;28;20469;-69
2022/06/10 07:13:54;;;;;;;13.43;4.13;;;17.90;99.90;;;;;;5044696;28;20045;-71
2022/06/10 07:16:19;;;;;;;14.35;4.15;;;17.90;99.90;;;;;;5049850;28;20017;-69
2022/06/10 07:18:45;;;;;;;15.48;3.78;;;18.00;99.90;;;;;;5051896;28;20029;-70
2022/06/10 07:21:11;;;;;;;16.13;3.80;;;17.80;99.90;;;;;;5053867;28;20082;-70
2022/06/10 07:23:37;;;;;;;17.30;3.88;;;17.90;99.90;;;;;;5046435;28;20056;-70
2022/06/10 07:26:04;;;;;;;11.02;3.83;;;18.00;99.90;;;;;;5047707;28;20045;-71
2022/06/10 07:28:31;;;;;;;10.43;3.42;;;18.10;99.90;;;;;;5050589;28;20029;-70
2022/06/10 07:30:58;;;;;;;13.23;3.90;;;18.00;99.90;;;;;;5051864;28;20465;-72
2022/06/10 07:33:23;;;;;;;14.70;3.67;;;18.00;99.90;;;;;;5054285;28;20021;-70
2022/06/10 07:35:49;;;;;;;14.48;3.83;;;18.20;99.90;;;;;;5054240;28;20107;-73
2022/06/10 07:38:15;;;;;;;22.45;3.63;;;18.40;99.90;;;;;;5054136;28;20021;-71
2022/06/10 07:43:30;;;;;;;14.27;3.90;;;18.30;99.90;;;;;;5054336;28;20086;-69
2022/06/10 07:45:56;;;;;;;17.77;4.00;;;18.50;99.90;;;;;;5052822;28;20064;-70
2022/06/10 07:48:22;;;;;;;19.75;3.92;;;18.40;99.90;;;;;;5051281;28;20048;-69
2022/06/10 07:50:49;;;;;;;14.52;3.65;;;18.30;99.90;;;;;;5054255;28;20055;-70
2022/06/10 07:53:16;;;;;;;14.93;3.45;;;18.70;99.90;;;;;;5053831;28;20036;-71
2022/06/10 07:55:44;;;;;;;17.02;3.88;;;18.70;99.90;;;;;;5054208;28;20037;-70
2022/06/10 07:58:11;;;;;;;11.95;3.70;;;18.80;99.90;;;;;;5053793;28;20437;-70
2022/06/10 08:00:37;;;;;;;18.77;3.42;;;18.70;99.90;;;;;;5039793;28;20037;-70
2022/06/10 08:03:05;;;;;;;10.20;3.05;;;18.60;99.90;;;;;;5053908;28;20190;-69
2022/06/10 08:05:32;;;;;;;12.30;3.05;;;18.70;99.90;;;;;;5053574;28;20469;-70
2022/06/10 08:07:58;;;;;;;13.40;2.83;;;18.90;99.90;;;;;;5035649;28;20037;-70
2022/06/10 08:10:32;;;;;;;12.35;2.60;;;18.80;99.90;;;;;;5053259;28;20033;-69
2022/06/10 08:12:58;;;;;;;12.20;2.95;;;18.80;99.90;;;;;;5053739;28;20068;-71
2022/06/10 08:15:25;;;;;;;12.95;3.38;;;19.00;99.90;;;;;;5035118;28;20047;-70
2022/06/10 08:17:51;;;;;;;17.63;2.60;;;19.00;99.90;;;;;;5053716;28;20017;-70
2022/06/10 08:20:20;;;;;;;7.43;2.13;;;19.00;99.90;;;;;;5053326;28;20031;-68
2022/06/10 08:22:46;;;;;;;14.75;2.33;;;19.10;99.90;;;;;;5053900;28;20376;-67
2022/06/10 08:25:13;;;;;;;14.38;2.50;;;19.40;99.90;;;;;;5053355;28;20040;-68
2022/06/10 08:27:39;;;;;;;14.80;3.00;;;19.50;99.90;;;;;;5053250;28;20044;-67
2022/06/10 08:30:11;;;;;;;8.40;2.40;;;19.60;99.90;;;;;;5053116;28;20466;-69
2022/06/10 08:32:37;;;;;;;6.50;2.10;;;19.70;99.90;;;;;;5053293;28;20020;-67
2022/06/10 08:35:04;;;;;;;9.20;2.13;;;19.90;99.90;;;;;;5053380;28;20059;-67
2022/06/10 08:37:30;;;;;;;11.07;2.15;;;20.30;99.90;;;;;;5053157;28;20371;-68
2022/06/10 08:39:56;;;;;;;9.10;1.73;;;20.30;99.90;;;;;;5053190;28;20471;-70
2022/06/10 08:42:36;;;;;;;11.98;2.20;;;20.20;99.90;;;;;;5033020;28;20037;-67
2022/06/10 08:45:31;;;;;;;11.63;2.20;;;20.10;99.90;;;;;;5052901;28;20025;-67
2022/06/10 08:48:15;;;;;;;14.07;2.38;;;20.10;99.90;;;;;;5048948;28;20075;-70
2022/06/10 08:51:06;;;;;;;18.85;2.65;;;20.20;99.90;;;;;;5035060;28;20037;-73
2022/06/10 08:53:53;;;;;;;11.77;2.95;;;20.50;99.90;;;;;;5006590;28;20075;-78
2022/06/10 08:56:33;;;;;;;19.83;3.15;;;20.60;99.90;;;;;;5053078;28;20083;-81
2022/06/10 08:59:05;;;;;;;13.40;2.53;;;20.30;99.90;;;;;;5040122;28;20115;-75
2022/06/10 09:02:03;;;;;;;11.65;2.35;;;20.60;99.90;;;;;;5053034;28;20029;-79
2022/06/10 09:04:38;;;;;;;9.70;2.65;;;21.20;99.90;;;;;;5008547;28;20048;-80
2022/06/10 09:07:12;;;;;;;18.60;3.47;;;20.90;99.90;;;;;;5052472;28;20021;-85
2022/06/10 09:09:41;;;;;;;15.32;2.58;;;20.70;99.90;;;;;;5053100;28;20099;-81
2022/06/10 09:12:47;;;;;;;10.57;2.15;;;21.20;99.90;;;;;;5052719;28;20485;-80
2022/06/10 09:15:14;;;;;;;12.73;2.38;;;21.00;99.90;;;;;;5034075;28;20037;-79
2022/06/10 09:17:46;;;;;;;12.95;2.42;;;21.10;99.90;;;;;;5052704;28;20036;-79
2022/06/10 09:20:29;;;;;;;15.65;4.15;;;21.40;99.90;;;;;;5052720;28;20029;-80
2022/06/10 09:23:00;;;;;;;8.25;1.98;;;21.80;99.90;;;;;;5040562;28;20021;-81
2022/06/10 09:25:39;;;;;;;14.23;2.80;;;21.90;99.90;;;;;;5052316;28;20111;-69
2022/06/10 09:28:05;;;;;;;9.85;2.90;;;21.80;99.90;;;;;;5052244;28;20043;-69
2022/06/10 09:30:36;;;;;;;14.20;2.38;;;21.40;99.90;;;;;;5052401;28;20393;-69
2022/06/10 09:33:25;;;;;;;10.70;3.08;;;21.60;99.90;;;;;;5052505;28;20090;-69
2022/06/10 09:36:02;;;;;;;15.80;2.92;;;21.40;99.90;;;;;;5039002;28;20037;-70
2022/06/10 09:38:54;;;;;;;10.40;2.65;;;22.00;99.90;;;;;;5052274;28;20492;-69
2022/06/10 09:41:39;;;;;;;9.73;3.03;;;21.90;99.90;;;;;;5052112;28;20488;-69
2022/06/10 09:44:30;;;;;;;9.05;2.40;;;21.70;99.90;;;;;;5052250;28;20355;-68
2022/06/10 09:47:20;;;;;;;18.10;3.05;;;21.90;99.90;;;;;;5034288;28;20386;-68
2022/06/10 09:50:13;;;;;;;9.77;2.22;;;21.30;99.90;;;;;;5051876;28;20048;-69
2022/06/10 09:53:02;;;;;;;15.20;2.63;;;21.40;99.90;;;;;;5052440;28;20421;-68
2022/06/10 09:55:55;;;;;;;13.65;2.70;;;21.70;99.90;;;;;;5034634;28;20029;-69
2022/06/10 09:58:42;;;;;;;13.43;2.65;;;22.00;99.90;;;;;;5014511;28;20044;-68
2022/06/10 10:01:32;;;;;;;8.73;2.00;;;21.60;99.90;;;;;;5051730;28;20021;-68
2022/06/10 10:04:19;;;;;;;12.80;2.33;;;21.90;99.90;;;;;;5051864;28;20029;-68
2022/06/10 10:06:55;;;;;;;11.65;2.22;;;22.10;99.90;;;;;;5051906;28;20078;-68
2022/06/10 10:09:57;;;;;;;9.65;2.28;;;22.30;99.90;;;;;;5034032;28;20049;-68
2022/06/10 10:12:55;;;;;;;10.50;3.22;;;21.70;99.90;;;;;;5053761;28;20048;-68
2022/06/10 10:15:52;;;;;;;12.70;2.20;;;21.40;99.90;;;;;;5055522;28;20029;-68
2022/06/10 10:18:47;;;;;;;9.93;2.08;;;21.20;99.90;;;;;;5071783;28;20455;-68
2022/06/10 10:21:17;;;;;;;11.80;2.95;;;21.50;99.90;;;;;;5049687;28;20158;-69
2022/06/10 10:23:55;;;;;;;13.02;2.72;;;22.20;99.90;;;;;;5072164;28;20094;-67
2022/06/10 10:26:33;;;;;;;12.80;2.78;;;22.50;99.90;;;;;;5071823;28;20550;-68
2022/06/10 10:29:14;;;;;;;12.15;2.92;;;22.40;99.90;;;;;;5060964;28;20175;-68
2022/06/10 10:32:02;;;;;;;13.60;2.50;;;22.50;99.90;;;;;;5057616;28;20035;-68
2022/06/10 10:34:36;;;;;;;11.75;3.97;;;22.80;99.90;;;;;;5075420;28;20025;-68
2022/06/10 10:37:05;;;;;;;10.10;1.70;;;22.70;99.90;;;;;;5075201;28;20388;-69
2022/06/10 10:39:38;;;;;;;9.30;2.00;;;22.70;99.90;;;;;;5075260;28;20389;-68
2022/06/10 10:42:23;;;;;;;8.60;2.13;;;22.60;99.90;;;;;;5075485;28;20051;-72
2022/06/10 10:45:00;;;;;;;7.68;2.25;;;22.80;99.90;;;;;;5042710;28;20465;-70
2022/06/10 10:47:27;;;;;;;12.77;2.53;;;23.00;99.90;;;;;;5037572;28;20029;-67
2022/06/10 10:50:15;;;;;;;9.20;2.60;;;22.70;99.90;;;;;;5047366;28;20045;-67
2022/06/10 10:52:44;;;;;;;9.13;2.03;;;23.10;99.90;;;;;;5074996;28;20024;-68
2022/06/10 10:55:13;;;;;;;8.68;2.42;;;22.70;99.90;;;;;;5074988;28;20039;-68
2022/06/10 10:58:03;;;;;;;11.52;2.22;;;22.80;99.90;;;;;;5066159;28;20017;-68
2022/06/10 11:00:33;;;;;;;9.02;2.25;;;23.00;99.90;;;;;;5053779;28;20021;-69
2022/06/10 11:03:01;;;;;;;11.35;2.42;;;23.00;99.90;;;;;;5073948;28;20118;-70
2022/06/10 11:05:46;;;;;;;9.27;2.08;;;23.10;99.90;;;;;;5063269;28;20028;-68
2022/06/10 11:08:15;;;;;;;14.30;2.03;;;23.10;99.90;;;;;;5074569;28;20127;-68
2022/06/10 11:11:13;;;;;;;9.25;2.00;;;22.90;99.90;;;;;;5074726;28;20090;-68
2022/06/10 11:14:01;;;;;;;8.02;2.15;;;22.90;99.90;;;;;;5074583;28;20032;-67
2022/06/10 11:16:39;;;;;;;10.00;2.30;;;23.60;99.90;;;;;;5074715;28;20083;-68
2022/06/10 11:19:26;;;;;;;12.80;2.25;;;23.10;99.90;;;;;;5049372;28;20029;-68
2022/06/10 11:22:04;;;;;;;10.82;2.30;;;22.90;99.90;;;;;;5070916;28;20086;-68
2022/06/10 11:24:33;;;;;;;12.75;2.10;;;23.00;99.90;;;;;;5074408;28;20039;-68
2022/06/10 11:27:02;;;;;;;11.05;2.67;;;22.40;99.90;;;;;;5074732;28;20038;-70
2022/06/10 11:29:29;;;;;;;6.18;1.90;;;22.70;99.90;;;;;;5074486;28;20511;-71
2022/06/10 11:32:06;;;;;;;11.32;2.15;;;22.90;99.90;;;;;;5074577;28;20032;-69
2022/06/10 11:34:41;;;;;;;19.30;2.40;;;22.90;99.90;;;;;;5074302;28;20037;-70
2022/06/10 11:37:40;;;;;;;7.05;1.75;;;22.90;99.90;;;;;;5074475;28;20393;-67
2022/06/10 11:40:08;;;;;;;14.20;2.65;;;23.40;99.90;;;;;;5055693;28;20037;-71
2022/06/10 11:42:46;;;;;;;9.40;2.28;;;23.90;99.90;;;;;;5074144;28;20078;-68
2022/06/10 11:45:17;;;;;;;13.88;2.53;;;24.20;99.90;;;;;;5074101;28;20086;-67
2022/06/10 11:47:56;;;;;;;16.42;2.85;;;24.10;99.90;;;;;;5063113;28;20025;-67
2022/06/10 11:50:40;;;;;;;8.40;1.95;;;23.20;99.90;;;;;;5074208;28;20086;-68
2022/06/10 11:53:33;;;;;;;18.48;3.28;;;23.10;99.90;;;;;;5048888;28;20017;-68
2022/06/10 12:01:47;;;;;;;10.73;2.20;;;23.10;99.90;;;;;;5073865;28;20059;-69
2022/06/10 12:04:29;;;;;;;12.55;2.15;;;22.90;99.90;;;;;;5063435;28;20023;-68
2022/06/10 12:07:01;;;;;;;8.57;2.75;;;23.20;99.90;;;;;;5073673;28;20349;-69
2022/06/10 12:09:48;;;;;;;7.28;2.35;;;23.30;99.90;;;;;;5055472;28;20044;-68
2022/06/10 12:12:24;;;;;;;12.73;2.15;;;23.20;99.90;;;;;;5073837;28;20032;-67
2022/06/10 12:14:56;;;;;;;11.27;2.58;;;23.20;99.90;;;;;;5055739;28;20024;-68
2022/06/10 12:17:30;;;;;;;10.25;2.13;;;23.40;99.90;;;;;;5073630;28;20145;-68
2022/06/10 12:20:20;;;;;;;12.88;2.65;;;23.30;99.90;;;;;;5059027;28;20394;-67
2022/06/10 12:22:46;;;;;;;12.43;2.30;;;22.90;99.90;;;;;;5073110;28;20017;-68
2022/06/10 12:25:23;;;;;;;14.57;2.90;;;22.90;99.90;;;;;;5073282;28;20037;-71
2022/06/10 12:27:58;;;;;;;10.45;2.22;;;22.80;99.90;;;;;;5072782;28;20085;-68
2022/06/10 12:30:49;;;;;;;9.10;2.10;;;23.10;99.90;;;;;;5044260;28;20338;-69
2022/06/10 12:33:28;;;;;;;11.68;2.38;;;23.00;99.90;;;;;;5073447;28;20074;-68
2022/06/10 12:35:55;;;;;;;16.13;2.17;;;23.00;99.90;;;;;;5054973;28;20474;-69
2022/06/10 12:38:30;;;;;;;8.52;2.55;;;23.20;99.90;;;;;;5072935;28;20016;-69
2022/06/10 12:41:11;;;;;;;7.00;2.03;;;23.10;99.90;;;;;;5072915;28;20070;-68
2022/06/10 12:43:41;;;;;;;12.23;2.20;;;23.00;99.90;;;;;;5055390;28;20036;-67
2022/06/10 12:46:19;;;;;;;14.13;2.40;;;23.30;99.90;;;;;;5052176;28;20024;-68
2022/06/10 12:48:47;;;;;;;11.45;2.83;;;23.50;99.90;;;;;;5066584;28;20043;-68
2022/06/10 12:51:12;;;;;;;11.15;2.50;;;23.50;99.90;;;;;;5071866;28;20093;-69
2022/06/10 12:53:45;;;;;;;8.68;1.98;;;23.30;99.90;;;;;;5072866;28;20032;-69
2022/06/10 12:56:31;;;;;;;10.70;2.83;;;23.60;99.90;;;;;;5054735;28;20091;-68
2022/06/10 12:59:11;;;;;;;13.68;2.47;;;23.60;99.90;;;;;;5072998;28;20428;-72
2022/06/10 13:01:37;;;;;;;14.13;3.30;;;23.80;99.90;;;;;;5048357;28;20477;-67
2022/06/10 13:04:14;;;;;;;11.90;3.00;;;24.20;99.90;;;;;;5063034;28;20017;-68
2022/06/10 13:06:42;;;;;;;17.77;2.95;;;24.00;99.90;;;;;;5046590;28;20043;-68
2022/06/10 13:09:11;;;;;;;9.65;2.33;;;24.00;99.90;;;;;;5072642;28;20097;-68
2022/06/10 13:11:47;;;;;;;8.32;2.20;;;24.10;99.90;;;;;;5027207;28;20040;-67
2022/06/10 13:14:16;;;;;;;14.85;2.15;;;23.60;99.90;;;;;;5063911;28;20033;-68
2022/06/10 13:17:06;;;;;;;11.57;2.92;;;23.20;99.90;;;;;;5072349;28;20100;-69
2022/06/10 13:19:58;;;;;;;10.90;2.38;;;23.20;99.90;;;;;;5061190;28;20060;-67
2022/06/10 13:22:39;;;;;;;;;;;23.00;99.90;;;;;;5041661;28;20469;-69
2022/06/10 13:25:08;;;;;;;11.33;2.50;;;23.00;99.90;;;;;;5072576;28;19916;-68